sensor_id;sensor_type;location;lat;lon;timestamp;P1;durP1;ratioP1;P2;durP2;ratioP2
40537;SDS011;27925;41.874;12.526;2023-04-24T00:00:41;12.55;;;3.72;;
40537;SDS011;27925;41.874;12.526;2023-04-24T00:03:10;10.68;;;3.70;;
40537;SDS011;27925;41.874;12.526;2023-04-24T00:05:36;14.35;;;3.78;;
40537;SDS011;27925;41.874;12.526;2023-04-24T00:08:01;9.55;;;3.15;;
40537;SDS011;27925;41.874;12.526;2023-04-24T00:10:27;9.52;;;3.38;;
40537;SDS011;27925;41.874;12.526;2023-04-24T00:12:53;15.20;;;3.65;;
40537;SDS011;27925;41.874;12.526;2023-04-24T00:15:18;18.08;;;3.80;;
40537;SDS011;27925;41.874;12.526;2023-04-24T00:17:44;10.00;;;3.50;;
40537;SDS011;27925;41.874;12.526;2023-04-24T00:20:10;12.60;;;3.20;;
40537;SDS011;27925;41.874;12.526;2023-04-24T00:22:35;10.55;;;3.45;;
40537;SDS011;27925;41.874;12.526;2023-04-24T00:25:01;9.63;;;3.42;;
40537;SDS011;27925;41.874;12.526;2023-04-24T00:27:27;14.13;;;3.17;;
40537;SDS011;27925;41.874;12.526;2023-04-24T00:29:53;11.70;;;4.10;;
40537;SDS011;27925;41.874;12.526;2023-04-24T00:32:18;11.30;;;3.03;;
40537;SDS011;27925;41.874;12.526;2023-04-24T00:34:44;11.07;;;3.40;;
40537;SDS011;27925;41.874;12.526;2023-04-24T00:37:10;10.73;;;3.05;;
40537;SDS011;27925;41.874;12.526;2023-04-24T00:39:36;9.32;;;3.20;;
40537;SDS011;27925;41.874;12.526;2023-04-24T00:42:02;11.45;;;3.30;;
40537;SDS011;27925;41.874;12.526;2023-04-24T00:44:28;9.52;;;3.22;;
40537;SDS011;27925;41.874;12.526;2023-04-24T00:46:53;11.30;;;3.17;;
40537;SDS011;27925;41.874;12.526;2023-04-24T00:49:21;10.55;;;3.25;;
40537;SDS011;27925;41.874;12.526;2023-04-24T00:51:47;8.40;;;3.13;;
40537;SDS011;27925;41.874;12.526;2023-04-24T00:54:14;7.97;;;2.75;;
40537;SDS011;27925;41.874;12.526;2023-04-24T00:56:41;10.50;;;2.97;;
40537;SDS011;27925;41.874;12.526;2023-04-24T00:59:07;9.18;;;3.20;;
40537;SDS011;27925;41.874;12.526;2023-04-24T01:01:33;11.13;;;3.38;;
40537;SDS011;27925;41.874;12.526;2023-04-24T01:03:59;19.40;;;3.28;;
40537;SDS011;27925;41.874;12.526;2023-04-24T01:06:27;12.63;;;3.65;;
40537;SDS011;27925;41.874;12.526;2023-04-24T01:08:56;16.85;;;3.60;;
40537;SDS011;27925;41.874;12.526;2023-04-24T01:11:22;13.00;;;3.63;;
40537;SDS011;27925;41.874;12.526;2023-04-24T01:13:48;10.35;;;3.28;;
40537;SDS011;27925;41.874;12.526;2023-04-24T01:16:14;8.65;;;3.25;;
40537;SDS011;27925;41.874;12.526;2023-04-24T01:18:42;9.50;;;3.10;;
40537;SDS011;27925;41.874;12.526;2023-04-24T01:21:08;9.02;;;3.40;;
40537;SDS011;27925;41.874;12.526;2023-04-24T01:23:35;12.00;;;3.35;;
40537;SDS011;27925;41.874;12.526;2023-04-24T01:26:01;12.90;;;3.67;;
40537;SDS011;27925;41.874;12.526;2023-04-24T01:28:26;11.80;;;3.00;;
40537;SDS011;27925;41.874;12.526;2023-04-24T01:30:52;9.98;;;2.85;;
40537;SDS011;27925;41.874;12.526;2023-04-24T01:33:18;11.02;;;3.28;;
40537;SDS011;27925;41.874;12.526;2023-04-24T01:35:46;10.32;;;3.03;;
40537;SDS011;27925;41.874;12.526;2023-04-24T01:38:13;13.07;;;3.30;;
40537;SDS011;27925;41.874;12.526;2023-04-24T01:40:39;11.07;;;3.08;;
40537;SDS011;27925;41.874;12.526;2023-04-24T01:43:05;9.43;;;3.30;;
40537;SDS011;27925;41.874;12.526;2023-04-24T01:45:31;10.98;;;3.25;;
40537;SDS011;27925;41.874;12.526;2023-04-24T01:47:57;12.32;;;2.97;;
40537;SDS011;27925;41.874;12.526;2023-04-24T01:50:22;9.68;;;2.92;;
40537;SDS011;27925;41.874;12.526;2023-04-24T01:52:48;8.75;;;3.25;;
40537;SDS011;27925;41.874;12.526;2023-04-24T01:55:14;12.23;;;3.25;;
40537;SDS011;27925;41.874;12.526;2023-04-24T01:57:40;21.50;;;3.28;;
40537;SDS011;27925;41.874;12.526;2023-04-24T02:00:06;9.25;;;3.60;;
40537;SDS011;27925;41.874;12.526;2023-04-24T02:02:32;13.27;;;3.22;;
40537;SDS011;27925;41.874;12.526;2023-04-24T02:04:58;8.85;;;3.30;;
40537;SDS011;27925;41.874;12.526;2023-04-24T02:07:24;10.13;;;3.08;;
40537;SDS011;27925;41.874;12.526;2023-04-24T02:09:50;12.40;;;3.15;;
40537;SDS011;27925;41.874;12.526;2023-04-24T02:12:15;12.02;;;3.20;;
40537;SDS011;27925;41.874;12.526;2023-04-24T02:14:42;7.45;;;2.58;;
40537;SDS011;27925;41.874;12.526;2023-04-24T02:17:08;8.70;;;2.67;;
40537;SDS011;27925;41.874;12.526;2023-04-24T02:19:34;6.57;;;2.65;;
40537;SDS011;27925;41.874;12.526;2023-04-24T02:22:00;7.32;;;3.30;;
40537;SDS011;27925;41.874;12.526;2023-04-24T02:24:26;8.60;;;3.13;;
40537;SDS011;27925;41.874;12.526;2023-04-24T02:26:51;8.20;;;2.88;;
40537;SDS011;27925;41.874;12.526;2023-04-24T02:29:17;8.45;;;3.58;;
40537;SDS011;27925;41.874;12.526;2023-04-24T02:31:43;9.60;;;3.47;;
40537;SDS011;27925;41.874;12.526;2023-04-24T02:34:08;8.60;;;3.15;;
40537;SDS011;27925;41.874;12.526;2023-04-24T02:36:34;14.98;;;3.65;;
40537;SDS011;27925;41.874;12.526;2023-04-24T02:39:00;10.23;;;3.00;;
40537;SDS011;27925;41.874;12.526;2023-04-24T02:41:26;11.38;;;3.25;;
40537;SDS011;27925;41.874;12.526;2023-04-24T02:43:57;8.93;;;3.28;;
40537;SDS011;27925;41.874;12.526;2023-04-24T02:46:23;10.50;;;3.25;;
40537;SDS011;27925;41.874;12.526;2023-04-24T02:48:50;11.00;;;3.42;;
40537;SDS011;27925;41.874;12.526;2023-04-24T02:51:15;10.40;;;3.25;;
40537;SDS011;27925;41.874;12.526;2023-04-24T02:53:41;9.20;;;3.38;;
40537;SDS011;27925;41.874;12.526;2023-04-24T02:56:07;8.88;;;3.40;;
40537;SDS011;27925;41.874;12.526;2023-04-24T02:58:32;13.73;;;3.60;;
40537;SDS011;27925;41.874;12.526;2023-04-24T03:00:58;7.38;;;3.30;;
40537;SDS011;27925;41.874;12.526;2023-04-24T03:03:25;8.10;;;3.60;;
40537;SDS011;27925;41.874;12.526;2023-04-24T03:05:51;11.45;;;3.47;;
40537;SDS011;27925;41.874;12.526;2023-04-24T03:08:16;11.30;;;3.50;;
40537;SDS011;27925;41.874;12.526;2023-04-24T03:10:42;13.43;;;3.47;;
40537;SDS011;27925;41.874;12.526;2023-04-24T03:13:08;9.88;;;3.70;;
40537;SDS011;27925;41.874;12.526;2023-04-24T03:15:34;9.55;;;3.50;;
40537;SDS011;27925;41.874;12.526;2023-04-24T03:17:59;8.68;;;2.95;;
40537;SDS011;27925;41.874;12.526;2023-04-24T03:20:25;12.60;;;3.65;;
40537;SDS011;27925;41.874;12.526;2023-04-24T03:22:51;11.98;;;3.55;;
40537;SDS011;27925;41.874;12.526;2023-04-24T03:25:17;8.10;;;3.45;;
40537;SDS011;27925;41.874;12.526;2023-04-24T21:30:18;34.90;;;7.68;;
40537;SDS011;27925;41.874;12.526;2023-04-24T21:32:44;38.47;;;7.70;;
40537;SDS011;27925;41.874;12.526;2023-04-24T21:35:10;33.22;;;6.82;;
40537;SDS011;27925;41.874;12.526;2023-04-24T21:37:36;35.95;;;7.18;;
40537;SDS011;27925;41.874;12.526;2023-04-24T21:40:03;33.92;;;7.03;;
40537;SDS011;27925;41.874;12.526;2023-04-24T21:42:29;30.08;;;7.18;;
40537;SDS011;27925;41.874;12.526;2023-04-24T21:44:55;40.67;;;7.78;;
40537;SDS011;27925;41.874;12.526;2023-04-24T21:47:21;31.27;;;7.38;;
40537;SDS011;27925;41.874;12.526;2023-04-24T21:49:46;41.08;;;8.00;;
40537;SDS011;27925;41.874;12.526;2023-04-24T21:52:12;33.33;;;7.88;;
40537;SDS011;27925;41.874;12.526;2023-04-24T21:54:37;38.83;;;8.27;;
40537;SDS011;27925;41.874;12.526;2023-04-24T21:57:03;38.13;;;7.57;;
40537;SDS011;27925;41.874;12.526;2023-04-24T21:59:29;33.75;;;7.97;;
40537;SDS011;27925;41.874;12.526;2023-04-24T22:01:55;30.08;;;7.53;;
40537;SDS011;27925;41.874;12.526;2023-04-24T22:04:21;32.80;;;7.05;;
40537;SDS011;27925;41.874;12.526;2023-04-24T22:06:46;32.45;;;7.40;;
40537;SDS011;27925;41.874;12.526;2023-04-24T22:09:12;32.47;;;7.57;;
40537;SDS011;27925;41.874;12.526;2023-04-24T22:11:38;30.25;;;6.60;;
40537;SDS011;27925;41.874;12.526;2023-04-24T22:14:05;34.53;;;7.45;;
40537;SDS011;27925;41.874;12.526;2023-04-24T22:16:31;32.03;;;7.50;;
40537;SDS011;27925;41.874;12.526;2023-04-24T22:18:58;31.45;;;7.93;;
40537;SDS011;27925;41.874;12.526;2023-04-24T22:21:23;31.45;;;7.40;;
40537;SDS011;27925;41.874;12.526;2023-04-24T22:23:50;27.70;;;6.32;;
40537;SDS011;27925;41.874;12.526;2023-04-24T22:26:15;40.92;;;7.43;;
40537;SDS011;27925;41.874;12.526;2023-04-24T22:28:41;26.65;;;7.53;;
40537;SDS011;27925;41.874;12.526;2023-04-24T22:31:07;39.22;;;7.45;;
40537;SDS011;27925;41.874;12.526;2023-04-24T22:33:33;29.90;;;7.05;;
40537;SDS011;27925;41.874;12.526;2023-04-24T22:35:58;39.60;;;8.10;;
40537;SDS011;27925;41.874;12.526;2023-04-24T22:38:25;33.90;;;7.60;;
40537;SDS011;27925;41.874;12.526;2023-04-24T22:40:51;39.95;;;6.45;;
40537;SDS011;27925;41.874;12.526;2023-04-24T22:43:17;38.13;;;8.38;;
40537;SDS011;27925;41.874;12.526;2023-04-24T22:45:43;36.55;;;7.93;;
40537;SDS011;27925;41.874;12.526;2023-04-24T22:48:09;33.55;;;6.28;;
40537;SDS011;27925;41.874;12.526;2023-04-24T22:50:35;35.78;;;6.55;;
40537;SDS011;27925;41.874;12.526;2023-04-24T22:53:01;32.60;;;6.97;;
40537;SDS011;27925;41.874;12.526;2023-04-24T22:55:27;35.47;;;6.80;;
40537;SDS011;27925;41.874;12.526;2023-04-24T22:57:52;41.72;;;6.57;;
40537;SDS011;27925;41.874;12.526;2023-04-24T23:00:18;29.20;;;5.68;;
40537;SDS011;27925;41.874;12.526;2023-04-24T23:02:44;31.05;;;7.03;;
40537;SDS011;27925;41.874;12.526;2023-04-24T23:05:10;31.85;;;6.45;;
40537;SDS011;27925;41.874;12.526;2023-04-24T23:07:36;30.80;;;6.40;;
40537;SDS011;27925;41.874;12.526;2023-04-24T23:10:03;41.85;;;7.35;;
40537;SDS011;27925;41.874;12.526;2023-04-24T23:12:30;30.33;;;6.32;;
40537;SDS011;27925;41.874;12.526;2023-04-24T23:14:55;32.70;;;6.38;;
40537;SDS011;27925;41.874;12.526;2023-04-24T23:17:21;28.77;;;6.60;;
40537;SDS011;27925;41.874;12.526;2023-04-24T23:19:47;37.17;;;6.97;;
40537;SDS011;27925;41.874;12.526;2023-04-24T23:22:13;36.20;;;7.43;;
40537;SDS011;27925;41.874;12.526;2023-04-24T23:24:39;24.75;;;5.85;;
40537;SDS011;27925;41.874;12.526;2023-04-24T23:27:04;33.28;;;7.05;;
40537;SDS011;27925;41.874;12.526;2023-04-24T23:29:30;29.98;;;5.93;;
40537;SDS011;27925;41.874;12.526;2023-04-24T23:31:56;29.48;;;6.00;;
40537;SDS011;27925;41.874;12.526;2023-04-24T23:34:22;30.80;;;6.13;;
40537;SDS011;27925;41.874;12.526;2023-04-24T23:36:48;26.90;;;6.18;;
40537;SDS011;27925;41.874;12.526;2023-04-24T23:39:15;30.83;;;5.95;;
40537;SDS011;27925;41.874;12.526;2023-04-24T23:41:41;25.98;;;6.05;;
40537;SDS011;27925;41.874;12.526;2023-04-24T23:44:08;27.83;;;5.57;;
40537;SDS011;27925;41.874;12.526;2023-04-24T23:46:37;30.17;;;6.18;;
40537;SDS011;27925;41.874;12.526;2023-04-24T23:49:02;31.38;;;7.18;;
40537;SDS011;27925;41.874;12.526;2023-04-24T23:51:28;34.80;;;7.15;;
40537;SDS011;27925;41.874;12.526;2023-04-24T23:53:55;26.02;;;6.13;;
40537;SDS011;27925;41.874;12.526;2023-04-24T23:56:22;28.58;;;6.57;;
40537;SDS011;27925;41.874;12.526;2023-04-24T23:58:53;29.52;;;6.13;;
